Time;durP1;ratioP1;P1;durP2;ratioP2;P2;SDS_P1;SDS_P2;PMS_P1;PMS_P2;Temp;Humidity;BMP_temperature;BMP_pressure;BME280_temperature;BME280_humidity;BME280_pressure;Samples;Min_cycle;Max_cycle;Signal;HPM_P1;HPM_P2
2022/01/07 00:01:07;;;;;;;16.45;9.43;;;;;;;;;;5110984;28;20035;-90
2022/01/07 00:03:46;;;;;;;21.02;10.32;;;;;;;;;;5094573;28;20122;-89
2022/01/07 00:06:12;;;;;;;16.73;9.38;;;;;;;;;;5077992;28;20040;-87
2022/01/07 00:08:39;;;;;;;22.50;10.23;;;;;;;;;;5106965;28;20551;-90
2022/01/07 00:11:05;;;;;;;17.20;9.93;;;;;;;;;;5096998;28;20040;-89
2022/01/07 00:13:31;;;;;;;17.38;9.60;;;;;;;;;;5093533;28;20031;-90
2022/01/07 00:15:57;;;;;;;19.40;9.05;;;;;;;;;;5095338;28;20040;-87
2022/01/07 00:18:23;;;;;;;20.35;9.25;;;;;;;;;;5089852;28;20071;-89
2022/01/07 00:20:52;;;;;;;21.02;9.40;;;;;;;;;;5096045;28;20108;-90
2022/01/07 00:23:18;;;;;;;17.13;8.63;;;;;;;;;;5083199;28;20559;-90
2022/01/07 00:25:44;;;;;;;18.88;9.00;;;;;;;;;;5104625;28;20174;-89
2022/01/07 00:28:11;;;;;;;20.70;8.95;;;;;;;;;;5093379;28;20081;-90
2022/01/07 00:30:37;;;;;;;19.08;9.00;;;;;;;;;;5087118;28;20064;-89
2022/01/07 00:33:03;;;;;;;19.48;8.68;;;;;;;;;;5099422;28;20039;-88
2022/01/07 00:35:29;;;;;;;20.52;9.55;;;;;;;;;;5096612;28;20499;-89
2022/01/07 00:37:56;;;;;;;18.27;9.07;;;;;;;;;;5106050;28;20123;-89
2022/01/07 00:40:23;;;;;;;15.15;8.25;;;;;;;;;;5077104;28;20234;-90
2022/01/07 00:42:50;;;;;;;18.25;8.98;;;;;;;;;;5100224;28;20079;-89
2022/01/07 00:45:17;;;;;;;22.50;8.23;;;;;;;;;;5072709;28;20035;-90
2022/01/07 00:47:44;;;;;;;21.23;9.15;;;;;;;;;;5105950;28;20047;-90
2022/01/07 00:50:11;;;;;;;18.63;9.27;;;;;;;;;;5077178;28;20036;-90
2022/01/07 00:52:38;;;;;;;21.83;9.43;;;;;;;;;;5083937;28;20514;-91
2022/01/07 00:55:04;;;;;;;18.67;9.05;;;;;;;;;;5089706;28;20123;-85
2022/01/07 00:57:30;;;;;;;18.20;9.23;;;;;;;;;;5106715;28;20039;-89
2022/01/07 00:59:57;;;;;;;17.48;9.18;;;;;;;;;;5094047;28;20146;-91
2022/01/07 01:02:23;;;;;;;16.40;9.18;;;;;;;;;;5111047;28;20043;-89
2022/01/07 01:04:49;;;;;;;18.27;9.05;;;;;;;;;;5094189;28;20487;-86
2022/01/07 01:07:16;;;;;;;15.95;8.80;;;;;;;;;;5111002;28;20122;-90
2022/01/07 01:09:43;;;;;;;18.15;9.73;;;;;;;;;;5093698;28;20039;-90
2022/01/07 01:12:10;;;;;;;18.63;9.25;;;;;;;;;;5085952;28;20040;-91
2022/01/07 01:14:36;;;;;;;20.20;9.20;;;;;;;;;;5102714;28;20036;-90
2022/01/07 01:17:03;;;;;;;17.85;9.20;;;;;;;;;;5110759;28;20036;-86
2022/01/07 01:19:29;;;;;;;17.90;8.95;;;;;;;;;;5089944;28;20445;-90
2022/01/07 01:21:55;;;;;;;22.98;9.93;;;;;;;;;;5073016;28;20075;-91
2022/01/07 01:24:21;;;;;;;19.25;9.45;;;;;;;;;;5089176;28;20089;-89
2022/01/07 01:27:03;;;;;;;19.40;9.45;;;;;;;;;;5087887;28;20449;-89
2022/01/07 01:29:29;;;;;;;18.08;8.95;;;;;;;;;;5109795;28;20499;-89
2022/01/07 01:31:55;;;;;;;21.25;10.38;;;;;;;;;;5092970;28;20126;-88
2022/01/07 01:34:21;;;;;;;17.67;9.82;;;;;;;;;;5110498;28;20032;-89
2022/01/07 01:36:47;;;;;;;16.27;9.57;;;;;;;;;;5093515;28;20524;-88
2022/01/07 01:39:14;;;;;;;18.70;9.98;;;;;;;;;;5072987;28;20096;-89
2022/01/07 01:41:41;;;;;;;22.52;9.55;;;;;;;;;;5089476;28;20044;-90
2022/01/07 01:44:08;;;;;;;18.20;9.88;;;;;;;;;;5083924;28;20589;-89
2022/01/07 01:46:34;;;;;;;19.05;9.75;;;;;;;;;;5092195;28;20046;-88
2022/01/07 01:49:00;;;;;;;17.90;9.57;;;;;;;;;;5092606;28;20036;-88
2022/01/07 01:51:26;;;;;;;18.10;10.75;;;;;;;;;;5092597;28;20032;-87
2022/01/07 01:53:53;;;;;;;19.08;10.13;;;;;;;;;;5097093;28;20191;-90
2022/01/07 01:56:19;;;;;;;17.60;10.40;;;;;;;;;;5072140;28;20048;-90
2022/01/07 01:58:46;;;;;;;18.67;10.70;;;;;;;;;;5071928;28;20048;-88
2022/01/07 02:01:12;;;;;;;20.48;11.60;;;;;;;;;;5078319;28;20043;-87
2022/01/07 02:03:38;;;;;;;18.60;10.73;;;;;;;;;;5108487;28;20047;-89
2022/01/07 02:06:04;;;;;;;19.27;10.93;;;;;;;;;;5091935;28;20040;-88
2022/01/07 02:08:31;;;;;;;21.45;11.57;;;;;;;;;;5086729;28;20200;-89
2022/01/07 02:11:00;;;;;;;21.15;11.60;;;;;;;;;;5088376;28;20032;-89
2022/01/07 02:13:26;;;;;;;19.73;11.73;;;;;;;;;;5098597;28;20040;-88
2022/01/07 02:15:52;;;;;;;23.70;12.77;;;;;;;;;;5077459;28;20040;-88
2022/01/07 02:18:19;;;;;;;19.95;11.40;;;;;;;;;;5104473;28;20043;-88
2022/01/07 02:20:45;;;;;;;18.17;11.02;;;;;;;;;;5077119;28;20568;-87
2022/01/07 02:23:12;;;;;;;21.95;11.45;;;;;;;;;;5081283;28;20047;-87
2022/01/07 02:25:38;;;;;;;24.38;14.45;;;;;;;;;;5087774;28;20044;-88
2022/01/07 02:28:04;;;;;;;24.95;13.55;;;;;;;;;;5104297;28;20501;-88
2022/01/07 02:30:31;;;;;;;24.52;13.20;;;;;;;;;;5075655;28;20097;-87
2022/01/07 02:32:57;;;;;;;22.10;13.40;;;;;;;;;;5091721;28;20047;-89
2022/01/07 02:35:30;;;;;;;23.45;12.88;;;;;;;;;;5108211;28;20044;-89
2022/01/07 02:37:57;;;;;;;24.10;13.00;;;;;;;;;;5074564;28;20248;-88
2022/01/07 02:40:23;;;;;;;22.52;13.95;;;;;;;;;;5085444;28;20078;-89
2022/01/07 02:42:49;;;;;;;23.88;14.05;;;;;;;;;;5087320;28;20101;-88
2022/01/07 02:45:16;;;;;;;23.00;14.20;;;;;;;;;;5083899;28;20044;-88
2022/01/07 02:48:16;;;;;;;23.63;14.40;;;;;;;;;;5090131;28;20104;-87
2022/01/07 02:50:37;;;;;;;22.33;13.60;;;;;;;;;;5094259;28;20278;-89
2022/01/07 02:53:04;;;;;;;22.80;13.77;;;;;;;;;;5077944;28;20039;-88
2022/01/07 02:55:30;;;;;;;20.80;14.00;;;;;;;;;;5086758;28;20060;-86
2022/01/07 02:57:57;;;;;;;24.60;14.13;;;;;;;;;;5074594;28;20044;-84
2022/01/07 03:00:24;;;;;;;26.20;16.23;;;;;;;;;;5099293;28;20036;-87
2022/01/07 03:02:52;;;;;;;25.42;14.65;;;;;;;;;;5083123;28;20074;-88
2022/01/07 03:05:19;;;;;;;23.55;15.07;;;;;;;;;;5076727;28;20115;-86
2022/01/07 03:07:48;;;;;;;23.42;15.20;;;;;;;;;;5095474;28;20036;-87
2022/01/07 03:10:15;;;;;;;23.88;15.45;;;;;;;;;;5103501;28;20040;-88
2022/01/07 03:12:43;;;;;;;25.85;15.38;;;;;;;;;;5087019;28;20400;-90
2022/01/07 03:15:10;;;;;;;21.90;15.25;;;;;;;;;;5094938;28;20039;-87
2022/01/07 03:17:40;;;;;;;28.67;15.70;;;;;;;;;;5107377;28;20505;-87
2022/01/07 03:20:09;;;;;;;25.65;15.30;;;;;;;;;;5074957;28;20369;-87
2022/01/07 03:22:35;;;;;;;28.73;15.13;;;;;;;;;;5104404;28;20556;-87
2022/01/07 03:25:01;;;;;;;26.33;17.05;;;;;;;;;;5109405;28;20039;-87
2022/01/07 03:27:28;;;;;;;24.45;15.85;;;;;;;;;;5078699;28;20042;-87
2022/01/07 03:29:54;;;;;;;26.13;16.02;;;;;;;;;;5086039;28;20110;-86
2022/01/07 03:32:20;;;;;;;26.88;16.58;;;;;;;;;;5074067;28;20040;-88
2022/01/07 03:34:47;;;;;;;26.33;17.20;;;;;;;;;;5091609;28;20490;-88
2022/01/07 03:37:13;;;;;;;27.20;16.92;;;;;;;;;;5094755;28;20493;-89
2022/01/07 03:39:40;;;;;;;25.67;16.48;;;;;;;;;;5103622;28;20532;-87
2022/01/07 03:42:06;;;;;;;24.95;16.55;;;;;;;;;;5073835;28;20078;-86
2022/01/07 03:44:32;;;;;;;26.98;16.58;;;;;;;;;;5106570;28;20044;-86
2022/01/07 03:46:58;;;;;;;24.30;16.77;;;;;;;;;;5094459;28;20044;-86
2022/01/07 03:49:25;;;;;;;25.65;17.05;;;;;;;;;;5093565;28;20150;-89
2022/01/07 03:51:51;;;;;;;23.77;16.63;;;;;;;;;;5082913;28;20040;-86
2022/01/07 03:54:17;;;;;;;25.75;18.45;;;;;;;;;;5105221;28;20110;-85
2022/01/07 03:56:43;;;;;;;26.52;17.85;;;;;;;;;;5091507;28;20396;-85
2022/01/07 03:59:09;;;;;;;27.60;17.67;;;;;;;;;;5096318;28;20044;-86
2022/01/07 04:01:35;;;;;;;26.20;18.45;;;;;;;;;;5083177;28;20044;-87
2022/01/07 04:04:01;;;;;;;27.58;18.15;;;;;;;;;;5087673;28;20510;-85
2022/01/07 04:06:27;;;;;;;28.60;17.98;;;;;;;;;;5076962;28;20043;-85
2022/01/07 04:08:54;;;;;;;31.42;19.45;;;;;;;;;;5104737;28;20392;-85
2022/01/07 04:11:20;;;;;;;27.70;19.17;;;;;;;;;;5082766;28;20043;-86
2022/01/07 04:13:46;;;;;;;25.98;16.98;;;;;;;;;;5096847;28;20433;-84
2022/01/07 04:16:13;;;;;;;31.10;19.27;;;;;;;;;;5106254;28;20085;-85
2022/01/07 04:18:39;;;;;;;29.15;18.92;;;;;;;;;;5105511;28;20043;-85
2022/01/07 04:21:05;;;;;;;26.25;17.85;;;;;;;;;;5099055;28;20044;-85
2022/01/07 04:23:32;;;;;;;27.00;16.92;;;;;;;;;;5080431;28;20093;-84
2022/01/07 04:25:58;;;;;;;29.83;18.40;;;;;;;;;;5106034;28;20122;-85
2022/01/07 04:28:25;;;;;;;26.08;17.42;;;;;;;;;;5093725;28;20100;-86
2022/01/07 04:30:51;;;;;;;26.58;17.52;;;;;;;;;;5101580;28;20043;-87
2022/01/07 04:33:25;;;;;;;29.58;18.75;;;;;;;;;;5072602;28;20036;-85
2022/01/07 04:35:52;;;;;;;25.52;16.65;;;;;;;;;;5088795;28;20036;-86
2022/01/07 04:38:18;;;;;;;23.63;16.75;;;;;;;;;;5073519;28;20480;-86
2022/01/07 04:40:44;;;;;;;28.27;17.25;;;;;;;;;;5080690;28;20032;-85
2022/01/07 04:43:11;;;;;;;27.08;17.30;;;;;;;;;;5079935;28;20093;-85
2022/01/07 04:45:37;;;;;;;24.92;17.10;;;;;;;;;;5105565;28;20550;-83
2022/01/07 04:48:04;;;;;;;26.13;17.42;;;;;;;;;;5092748;28;20384;-85
2022/01/07 04:50:30;;;;;;;24.05;15.88;;;;;;;;;;5100777;28;20043;-85
2022/01/07 04:52:56;;;;;;;26.50;16.17;;;;;;;;;;5100649;28;20118;-87
2022/01/07 04:55:29;;;;;;;25.67;17.80;;;;;;;;;;5092797;28;20063;-84
2022/01/07 04:57:55;;;;;;;28.83;17.00;;;;;;;;;;5072801;28;20078;-84
2022/01/07 05:00:22;;;;;;;24.17;17.15;;;;;;;;;;5079910;28;20044;-85
2022/01/07 05:02:49;;;;;;;30.77;17.88;;;;;;;;;;5096573;28;20067;-84
2022/01/07 05:05:15;;;;;;;26.38;15.95;;;;;;;;;;5105031;28;20568;-85
2022/01/07 05:07:41;;;;;;;25.02;16.73;;;;;;;;;;5104132;28;20040;-84
2022/01/07 05:10:09;;;;;;;24.98;17.00;;;;;;;;;;5079020;28;20047;-84
2022/01/07 05:12:36;;;;;;;24.30;17.15;;;;;;;;;;5096848;28;20073;-84
2022/01/07 05:15:02;;;;;;;24.88;17.02;;;;;;;;;;5104122;28;20074;-84
2022/01/07 05:17:29;;;;;;;24.00;16.27;;;;;;;;;;5092254;28;20047;-83
2022/01/07 05:19:55;;;;;;;24.55;16.60;;;;;;;;;;5101198;28;20047;-84
2022/01/07 05:22:21;;;;;;;26.45;16.88;;;;;;;;;;5099746;28;20123;-86
2022/01/07 05:24:47;;;;;;;21.30;15.93;;;;;;;;;;5076547;28;20558;-86
2022/01/07 05:27:13;;;;;;;21.40;15.35;;;;;;;;;;5104987;28;20345;-85
2022/01/07 05:29:48;;;;;;;23.75;16.35;;;;;;;;;;5077522;28;20127;-85
2022/01/07 05:32:14;;;;;;;22.20;15.55;;;;;;;;;;5096619;28;20032;-87
2022/01/07 05:34:41;;;;;;;22.85;15.88;;;;;;;;;;5087036;28;20057;-84
2022/01/07 05:37:09;;;;;;;20.35;14.75;;;;;;;;;;5091720;28;20040;-86
2022/01/07 05:39:36;;;;;;;23.35;15.00;;;;;;;;;;5100989;28;20051;-85
2022/01/07 05:42:03;;;;;;;20.38;14.68;;;;;;;;;;5099475;28;20043;-85
2022/01/07 05:44:29;;;;;;;20.77;13.82;;;;;;;;;;5092781;28;20067;-86
2022/01/07 05:46:55;;;;;;;20.33;14.05;;;;;;;;;;5104667;28;20434;-84
2022/01/07 05:49:22;;;;;;;23.00;15.82;;;;;;;;;;5094369;28;20040;-86
2022/01/07 05:51:48;;;;;;;19.67;14.25;;;;;;;;;;5097339;28;20055;-84
2022/01/07 05:54:14;;;;;;;23.58;15.38;;;;;;;;;;5090172;28;20711;-85
2022/01/07 05:56:41;;;;;;;21.10;13.82;;;;;;;;;;5104192;28;20450;-85
2022/01/07 05:59:07;;;;;;;21.25;14.43;;;;;;;;;;5093677;28;20044;-85
2022/01/07 06:01:33;;;;;;;22.38;15.10;;;;;;;;;;5080982;28;20101;-84
2022/01/07 06:03:59;;;;;;;19.60;13.30;;;;;;;;;;5101718;28;20048;-85
2022/01/07 06:06:27;;;;;;;23.42;14.60;;;;;;;;;;5091360;28;20047;-85
2022/01/07 06:08:53;;;;;;;18.48;13.35;;;;;;;;;;5101796;28;20043;-86
2022/01/07 06:11:19;;;;;;;22.55;15.38;;;;;;;;;;5097092;28;20046;-86
2022/01/07 06:13:45;;;;;;;20.92;13.70;;;;;;;;;;5107915;28;20039;-84
2022/01/07 06:16:11;;;;;;;19.45;14.43;;;;;;;;;;5091218;28;20036;-86
2022/01/07 06:18:51;;;;;;;21.25;14.43;;;;;;;;;;5103141;28;20449;-86
2022/01/07 06:21:17;;;;;;;19.38;13.30;;;;;;;;;;5098092;28;20051;-86
2022/01/07 06:23:43;;;;;;;19.50;13.75;;;;;;;;;;5075918;28;20101;-87
2022/01/07 06:26:10;;;;;;;20.25;14.02;;;;;;;;;;5103650;28;20044;-86
2022/01/07 06:28:36;;;;;;;19.98;14.57;;;;;;;;;;5093542;28;20075;-85
2022/01/07 06:31:02;;;;;;;19.73;15.35;;;;;;;;;;5080724;28;20028;-86
2022/01/07 06:33:28;;;;;;;23.52;14.05;;;;;;;;;;5101482;28;20036;-85
2022/01/07 06:35:54;;;;;;;21.90;15.63;;;;;;;;;;5091185;28;20089;-88
2022/01/07 06:38:20;;;;;;;20.88;14.20;;;;;;;;;;5084986;28;20328;-85
2022/01/07 06:40:47;;;;;;;21.67;13.98;;;;;;;;;;5099799;28;20036;-88
2022/01/07 06:43:13;;;;;;;18.52;13.45;;;;;;;;;;5081377;28;20412;-86
2022/01/07 06:45:39;;;;;;;18.77;13.90;;;;;;;;;;5107813;28;20043;-86
2022/01/07 06:48:05;;;;;;;20.13;14.15;;;;;;;;;;5095978;28;20059;-87
2022/01/07 06:50:31;;;;;;;19.05;14.05;;;;;;;;;;5085814;28;20109;-86
2022/01/07 06:52:58;;;;;;;18.90;13.48;;;;;;;;;;5086509;28;20035;-85
2022/01/07 06:55:24;;;;;;;20.10;14.00;;;;;;;;;;5077948;28;20063;-84
2022/01/07 06:57:50;;;;;;;19.45;14.35;;;;;;;;;;5094514;28;20043;-86
2022/01/07 07:00:16;;;;;;;20.52;14.35;;;;;;;;;;5103476;28;20048;-87
2022/01/07 07:02:42;;;;;;;19.67;13.80;;;;;;;;;;5103049;28;20061;-86
2022/01/07 07:05:09;;;;;;;19.17;13.98;;;;;;;;;;5078462;28;20040;-90
2022/01/07 07:07:35;;;;;;;22.45;14.95;;;;;;;;;;5093976;28;20044;-87
2022/01/07 07:10:01;;;;;;;21.63;14.13;;;;;;;;;;5086739;28;20082;-87
2022/01/07 07:12:27;;;;;;;20.30;14.57;;;;;;;;;;5084812;28;20050;-87
2022/01/07 07:14:53;;;;;;;19.08;12.25;;;;;;;;;;5079384;28;20126;-88
2022/01/07 07:17:20;;;;;;;22.58;15.43;;;;;;;;;;5107438;28;20039;-87
2022/01/07 07:19:47;;;;;;;20.85;14.18;;;;;;;;;;5096927;28;20044;-87
2022/01/07 07:22:13;;;;;;;19.42;14.88;;;;;;;;;;5100459;28;20119;-85
2022/01/07 07:24:40;;;;;;;19.92;14.38;;;;;;;;;;5087798;28;20043;-88
2022/01/07 07:27:06;;;;;;;20.00;14.02;;;;;;;;;;5094461;28;20539;-85
2022/01/07 07:29:32;;;;;;;21.42;15.30;;;;;;;;;;5104506;28;20044;-86
2022/01/07 07:32:03;;;;;;;21.25;14.00;;;;;;;;;;5100890;28;20063;-85
2022/01/07 07:34:55;;;;;;;21.80;14.93;;;;;;;;;;5113255;28;20148;-87
2022/01/07 07:37:19;;;;;;;20.65;14.07;;;;;;;;;;5092667;28;20043;-85
2022/01/07 07:39:45;;;;;;;20.65;14.40;;;;;;;;;;5092776;28;20047;-86
2022/01/07 07:42:11;;;;;;;21.20;15.73;;;;;;;;;;5092795;28;20048;-85
2022/01/07 07:44:37;;;;;;;24.75;16.30;;;;;;;;;;5075999;28;20043;-85
2022/01/07 07:47:04;;;;;;;24.67;15.50;;;;;;;;;;5104680;28;20036;-85
2022/01/07 07:49:30;;;;;;;24.55;16.27;;;;;;;;;;5097998;28;20035;-85
2022/01/07 07:51:56;;;;;;;25.17;16.88;;;;;;;;;;5094841;28;20061;-86
2022/01/07 07:54:23;;;;;;;25.52;16.80;;;;;;;;;;5108325;28;20056;-85
2022/01/07 07:56:49;;;;;;;26.00;17.42;;;;;;;;;;5099550;28;20119;-85
2022/01/07 07:59:15;;;;;;;25.52;16.67;;;;;;;;;;5105114;28;20126;-85
2022/01/07 08:01:42;;;;;;;25.73;16.95;;;;;;;;;;5107654;28;20036;-84
2022/01/07 08:04:10;;;;;;;27.38;17.83;;;;;;;;;;5090325;28;20031;-87
2022/01/07 08:06:37;;;;;;;27.52;17.98;;;;;;;;;;5103658;28;20067;-86
2022/01/07 08:09:03;;;;;;;29.52;18.90;;;;;;;;;;5102926;28;20448;-87
2022/01/07 08:11:37;;;;;;;28.95;18.38;;;;;;;;;;5093529;28;20040;-86
2022/01/07 08:16:47;;;;;;;27.20;18.52;;;;;;;;;;5094808;28;20587;-87
2022/01/07 08:19:14;;;;;;;28.55;19.48;;;;;;;;;;5086977;28;20112;-86
2022/01/07 08:21:46;;;;;;;27.75;18.52;;;;;;;;;;5086903;28;20579;-86
2022/01/07 08:24:12;;;;;;;27.17;19.05;;;;;;;;;;5092645;28;20411;-84
2022/01/07 08:26:38;;;;;;;33.60;20.63;;;;;;;;;;5094711;28;20040;-89
2022/01/07 08:29:07;;;;;;;29.60;19.65;;;;;;;;;;5091181;28;20040;-86
2022/01/07 08:37:18;;;;;;;33.05;20.98;;;;;;;;;;5103089;28;20066;-85
2022/01/07 08:39:45;;;;;;;33.22;22.42;;;;;;;;;;5084872;28;20312;-85
2022/01/07 08:42:11;;;;;;;39.35;23.42;;;;;;;;;;5100855;28;20115;-85
2022/01/07 08:44:54;;;;;;;37.53;22.67;;;;;;;;;;5089850;28;20038;-86
2022/01/07 08:47:23;;;;;;;33.97;22.42;;;;;;;;;;5102898;28;20062;-85
2022/01/07 08:49:50;;;;;;;36.00;22.88;;;;;;;;;;5087582;28;20119;-86
2022/01/07 08:52:17;;;;;;;36.92;22.55;;;;;;;;;;5084480;28;20115;-86
2022/01/07 08:54:50;;;;;;;37.97;23.80;;;;;;;;;;5098401;28;20040;-86
2022/01/07 08:57:20;;;;;;;36.80;24.40;;;;;;;;;;5080163;28;20032;-87
2022/01/07 09:00:05;;;;;;;35.95;24.15;;;;;;;;;;5081416;28;20083;-87
2022/01/07 09:02:32;;;;;;;38.35;23.48;;;;;;;;;;5081628;28;20423;-87
2022/01/07 09:04:58;;;;;;;36.78;24.00;;;;;;;;;;5079659;28;20536;-87
2022/01/07 09:07:24;;;;;;;38.97;24.17;;;;;;;;;;5088558;28;20458;-87
2022/01/07 09:09:50;;;;;;;37.05;23.55;;;;;;;;;;5077959;28;20051;-86
2022/01/07 09:12:17;;;;;;;42.97;25.90;;;;;;;;;;5092403;28;20330;-87
2022/01/07 09:14:45;;;;;;;36.65;22.77;;;;;;;;;;5082454;28;20071;-87
2022/01/07 09:17:11;;;;;;;36.50;24.25;;;;;;;;;;5088783;28;20092;-87
2022/01/07 09:19:37;;;;;;;40.20;24.65;;;;;;;;;;5084991;28;20043;-87
2022/01/07 09:22:04;;;;;;;38.72;23.45;;;;;;;;;;5089119;28;20036;-87
2022/01/07 09:24:30;;;;;;;40.85;24.95;;;;;;;;;;5097094;28;20059;-88
2022/01/07 09:26:57;;;;;;;39.72;24.58;;;;;;;;;;5087899;28;20035;-85
2022/01/07 09:29:23;;;;;;;39.72;24.10;;;;;;;;;;5088584;28;20072;-86
2022/01/07 09:31:50;;;;;;;39.92;25.88;;;;;;;;;;5097190;28;20160;-86
2022/01/07 09:34:16;;;;;;;37.25;22.85;;;;;;;;;;5092442;28;20180;-86
2022/01/07 09:36:43;;;;;;;38.17;23.85;;;;;;;;;;5092597;28;20522;-87
2022/01/07 09:39:09;;;;;;;41.55;24.85;;;;;;;;;;5084431;28;20035;-86
2022/01/07 09:41:35;;;;;;;40.80;24.15;;;;;;;;;;5082928;28;20036;-87
2022/01/07 09:44:02;;;;;;;43.90;25.02;;;;;;;;;;5071510;28;20047;-87
2022/01/07 09:46:28;;;;;;;38.13;24.05;;;;;;;;;;5071780;28;20040;-87
2022/01/07 09:48:55;;;;;;;40.05;23.70;;;;;;;;;;5108341;28;20077;-87
2022/01/07 09:51:22;;;;;;;36.60;23.02;;;;;;;;;;5100719;28;20036;-87
2022/01/07 09:53:48;;;;;;;38.38;23.70;;;;;;;;;;5095260;28;20193;-87
2022/01/07 09:56:15;;;;;;;34.85;22.20;;;;;;;;;;5092563;28;20052;-86
2022/01/07 09:58:41;;;;;;;43.55;24.52;;;;;;;;;;5079214;28;20035;-87
2022/01/07 10:01:16;;;;;;;42.60;24.33;;;;;;;;;;5094330;28;20035;-88
2022/01/07 10:03:44;;;;;;;41.55;24.77;;;;;;;;;;5081884;28;20047;-88
2022/01/07 10:06:17;;;;;;;39.22;25.48;;;;;;;;;;5118707;27;20042;-88
2022/01/07 10:08:43;;;;;;;41.83;26.02;;;;;;;;;;5094014;28;20040;-86
2022/01/07 10:11:18;;;;;;;43.35;25.70;;;;;;;;;;5100235;28;20035;-89
2022/01/07 10:13:45;;;;;;;43.67;25.83;;;;;;;;;;5094932;28;20054;-89
2022/01/07 10:16:15;;;;;;;41.10;23.98;;;;;;;;;;5095669;28;20040;-88
2022/01/07 10:18:42;;;;;;;44.47;24.23;;;;;;;;;;5072766;28;20040;-87
2022/01/07 10:21:11;;;;;;;32.60;20.65;;;;;;;;;;5098822;28;20052;-88
2022/01/07 10:23:38;;;;;;;25.48;16.27;;;;;;;;;;5086331;28;20043;-87
2022/01/07 10:26:04;;;;;;;18.92;11.10;;;;;;;;;;5076041;28;20039;-88
2022/01/07 10:28:32;;;;;;;16.05;9.07;;;;;;;;;;5090910;28;20568;-87
2022/01/07 10:31:00;;;;;;;18.45;9.52;;;;;;;;;;5077900;28;20036;-87
2022/01/07 10:33:30;;;;;;;15.23;8.60;;;;;;;;;;5099755;28;20047;-87
2022/01/07 10:35:58;;;;;;;11.32;5.82;;;;;;;;;;5088005;28;20449;-87
2022/01/07 10:38:28;;;;;;;9.95;5.38;;;;;;;;;;5087731;28;20032;-87
2022/01/07 10:40:59;;;;;;;9.48;4.47;;;;;;;;;;5087982;28;20040;-86
2022/01/07 10:43:32;;;;;;;13.02;4.82;;;;;;;;;;5078313;28;20036;-85
2022/01/07 10:46:07;;;;;;;10.27;4.13;;;;;;;;;;5071097;28;20036;-86
2022/01/07 10:48:38;;;;;;;9.55;4.13;;;;;;;;;;5091656;28;20050;-87
2022/01/07 10:51:09;;;;;;;9.73;4.70;;;;;;;;;;5087799;28;20388;-85
2022/01/07 10:53:35;;;;;;;9.13;4.35;;;;;;;;;;5100369;28;20066;-85
2022/01/07 10:56:19;;;;;;;10.10;4.80;;;;;;;;;;5082980;28;20058;-85
2022/01/07 10:58:45;;;;;;;10.07;4.97;;;;;;;;;;5105534;28;20445;-86
2022/01/07 11:01:21;;;;;;;9.95;5.38;;;;;;;;;;5087341;28;20131;-85
2022/01/07 11:03:55;;;;;;;10.80;5.40;;;;;;;;;;5075797;28;20032;-84
2022/01/07 11:06:22;;;;;;;12.68;6.05;;;;;;;;;;5104029;28;20096;-85
2022/01/07 11:08:49;;;;;;;11.75;6.53;;;;;;;;;;5083229;28;20044;-86
2022/01/07 11:11:16;;;;;;;12.25;6.65;;;;;;;;;;5094491;28;20158;-87
2022/01/07 11:13:43;;;;;;;13.15;6.93;;;;;;;;;;5070690;28;20032;-87
2022/01/07 11:16:09;;;;;;;14.25;8.05;;;;;;;;;;5078727;28;20240;-87
2022/01/07 11:18:40;;;;;;;15.27;8.13;;;;;;;;;;5089507;28;20080;-87
2022/01/07 11:21:06;;;;;;;16.02;8.77;;;;;;;;;;5088862;28;20085;-87
2022/01/07 11:23:33;;;;;;;16.25;9.32;;;;;;;;;;5085048;28;20040;-86
2022/01/07 11:26:01;;;;;;;17.00;9.30;;;;;;;;;;5086137;28;20061;-86
2022/01/07 11:28:28;;;;;;;16.85;9.77;;;;;;;;;;5096736;28;20047;-87
2022/01/07 11:31:04;;;;;;;18.40;10.48;;;;;;;;;;5111021;28;20266;-86
2022/01/07 11:33:30;;;;;;;17.30;9.98;;;;;;;;;;5097279;28;20096;-86
2022/01/07 11:35:57;;;;;;;17.60;10.27;;;;;;;;;;5111481;28;20044;-85
2022/01/07 11:38:43;;;;;;;15.75;10.52;;;;;;;;;;5110834;28;20040;-86
2022/01/07 11:41:11;;;;;;;18.85;10.60;;;;;;;;;;5095002;28;20055;-85
2022/01/07 11:43:39;;;;;;;20.35;11.73;;;;;;;;;;5101865;28;20043;-85
2022/01/07 11:46:24;;;;;;;21.98;12.27;;;;;;;;;;5086945;28;20088;-85
2022/01/07 11:48:50;;;;;;;22.20;12.48;;;;;;;;;;5077137;28;20240;-85
2022/01/07 11:51:17;;;;;;;18.20;12.45;;;;;;;;;;5086288;28;20040;-86
2022/01/07 11:53:49;;;;;;;23.58;12.40;;;;;;;;;;5084752;28;20058;-85
2022/01/07 11:56:17;;;;;;;21.70;13.45;;;;;;;;;;5094351;28;20036;-85
2022/01/07 11:58:44;;;;;;;23.55;13.65;;;;;;;;;;5106775;28;20185;-86
2022/01/07 12:01:30;;;;;;;24.83;13.80;;;;;;;;;;5080647;28;20040;-85
2022/01/07 12:03:58;;;;;;;23.52;13.85;;;;;;;;;;5093454;28;20557;-84
2022/01/07 12:06:24;;;;;;;25.20;14.50;;;;;;;;;;5091812;28;20043;-85
2022/01/07 12:08:59;;;;;;;30.17;16.52;;;;;;;;;;5079156;28;20491;-86
2022/01/07 12:11:29;;;;;;;28.10;16.15;;;;;;;;;;5099065;28;20118;-87
2022/01/07 12:13:56;;;;;;;28.42;17.15;;;;;;;;;;5088680;28;20035;-87
2022/01/07 12:16:23;;;;;;;28.27;16.92;;;;;;;;;;5074084;28;20040;-87
2022/01/07 12:18:49;;;;;;;27.60;15.70;;;;;;;;;;5080476;28;20039;-87
2022/01/07 12:21:16;;;;;;;25.73;15.95;;;;;;;;;;5110166;28;20043;-87
2022/01/07 12:23:49;;;;;;;24.63;15.18;;;;;;;;;;5110387;28;20117;-85
2022/01/07 12:26:15;;;;;;;25.70;14.95;;;;;;;;;;5076861;28;20491;-86
2022/01/07 12:28:48;;;;;;;22.90;14.25;;;;;;;;;;5084696;28;20044;-86
2022/01/07 12:31:14;;;;;;;21.85;13.60;;;;;;;;;;5092258;28;20264;-85
2022/01/07 12:33:50;;;;;;;18.83;11.52;;;;;;;;;;5097623;28;20487;-85
2022/01/07 12:36:30;;;;;;;20.55;10.52;;;;;;;;;;5080970;28;20123;-85
2022/01/07 12:39:04;;;;;;;17.65;7.90;;;;;;;;;;5100169;28;20122;-85
2022/01/07 12:41:31;;;;;;;10.77;4.18;;;;;;;;;;5094242;28;20476;-85
2022/01/07 12:44:06;;;;;;;10.68;4.20;;;;;;;;;;5077399;28;20093;-85
2022/01/07 12:46:32;;;;;;;10.73;4.22;;;;;;;;;;5106433;28;20123;-87
2022/01/07 12:48:58;;;;;;;9.27;4.57;;;;;;;;;;5097957;28;20040;-86
2022/01/07 12:51:25;;;;;;;11.13;5.05;;;;;;;;;;5074206;28;20123;-86
2022/01/07 12:53:57;;;;;;;12.68;5.28;;;;;;;;;;5093107;28;20481;-86
2022/01/07 12:56:30;;;;;;;10.73;4.97;;;;;;;;;;5100647;28;20048;-86
2022/01/07 12:58:57;;;;;;;12.00;5.10;;;;;;;;;;5078293;28;20054;-86
2022/01/07 13:01:29;;;;;;;8.98;3.90;;;;;;;;;;5105872;28;20119;-87
2022/01/07 13:04:08;;;;;;;10.60;4.00;;;;;;;;;;5073261;28;20046;-87
2022/01/07 13:06:38;;;;;;;13.98;3.65;;;;;;;;;;5091985;28;20040;-87
2022/01/07 13:09:04;;;;;;;8.80;3.65;;;;;;;;;;5091274;28;20074;-87
2022/01/07 13:11:31;;;;;;;7.63;2.80;;;;;;;;;;5072548;28;20040;-87
2022/01/07 13:14:04;;;;;;;8.10;2.15;;;;;;;;;;5097422;28;20047;-87
2022/01/07 13:16:31;;;;;;;7.50;2.20;;;;;;;;;;5096315;28;20050;-86
2022/01/07 13:19:15;;;;;;;10.50;2.50;;;;;;;;;;5088644;28;20039;-87
2022/01/07 13:21:42;;;;;;;9.45;1.80;;;;;;;;;;5095654;28;20043;-87
2022/01/07 13:24:13;;;;;;;7.47;1.90;;;;;;;;;;5090148;28;20050;-87
2022/01/07 13:26:39;;;;;;;6.95;1.70;;;;;;;;;;5076287;28;20067;-87
2022/01/07 13:29:16;;;;;;;8.30;2.13;;;;;;;;;;5090656;28;20043;-88
2022/01/07 13:31:43;;;;;;;6.38;1.63;;;;;;;;;;5101032;28;20119;-86
2022/01/07 13:34:10;;;;;;;5.15;1.73;;;;;;;;;;5100748;28;20041;-87
2022/01/07 13:36:37;;;;;;;9.73;2.20;;;;;;;;;;5106107;28;20587;-86
2022/01/07 13:39:05;;;;;;;8.70;2.42;;;;;;;;;;5108767;28;20653;-86
2022/01/07 13:41:32;;;;;;;9.98;2.85;;;;;;;;;;5091492;28;20039;-87
2022/01/07 13:44:07;;;;;;;12.35;3.05;;;;;;;;;;5091804;28;20043;-87
2022/01/07 13:46:37;;;;;;;10.18;2.83;;;;;;;;;;5090235;28;20122;-88
2022/01/07 13:49:11;;;;;;;8.10;2.65;;;;;;;;;;5107815;28;20043;-87
2022/01/07 13:51:38;;;;;;;9.18;3.63;;;;;;;;;;5108602;28;20078;-88
2022/01/07 13:54:14;;;;;;;10.23;3.65;;;;;;;;;;5089488;28;20351;-87
2022/01/07 13:56:43;;;;;;;14.60;4.53;;;;;;;;;;5086599;28;20047;-87
2022/01/07 13:59:10;;;;;;;9.80;3.85;;;;;;;;;;5090335;28;20040;-86
2022/01/07 14:01:37;;;;;;;12.70;5.07;;;;;;;;;;5093862;28;20103;-86
2022/01/07 14:04:04;;;;;;;13.27;5.00;;;;;;;;;;5093029;28;20035;-86
2022/01/07 14:06:30;;;;;;;14.13;6.40;;;;;;;;;;5081245;28;20452;-86
2022/01/07 14:09:12;;;;;;;11.85;5.55;;;;;;;;;;5086168;28;20043;-87
2022/01/07 14:11:39;;;;;;;11.15;5.63;;;;;;;;;;5091089;28;20127;-88
2022/01/07 14:14:19;;;;;;;13.30;5.72;;;;;;;;;;5090850;28;20123;-87
2022/01/07 14:16:46;;;;;;;14.60;6.63;;;;;;;;;;5080416;28;20035;-87
2022/01/07 14:19:13;;;;;;;12.20;6.40;;;;;;;;;;5108001;28;20052;-86
2022/01/07 14:21:40;;;;;;;16.48;6.93;;;;;;;;;;5084697;28;20185;-87
2022/01/07 14:24:07;;;;;;;16.40;6.80;;;;;;;;;;5072092;28;20043;-87
2022/01/07 14:26:42;;;;;;;13.88;6.82;;;;;;;;;;5093653;28;20518;-86
2022/01/07 14:29:09;;;;;;;14.10;6.63;;;;;;;;;;5101015;28;20027;-87
2022/01/07 14:31:35;;;;;;;13.20;6.25;;;;;;;;;;5097364;28;20076;-87
2022/01/07 14:34:03;;;;;;;14.77;7.00;;;;;;;;;;5092104;28;20507;-87